sensor_id;sensor_type;location;lat;lon;timestamp;P1;durP1;ratioP1;P2;durP2;ratioP2
11699;SDS011;5906;51.660;6.674;2023-07-24T00:00:34;7.60;;;4.00;;
11699;SDS011;5906;51.660;6.674;2023-07-24T00:03:02;7.33;;;4.10;;
11699;SDS011;5906;51.660;6.674;2023-07-24T00:05:29;12.07;;;4.70;;
11699;SDS011;5906;51.660;6.674;2023-07-24T00:07:56;9.03;;;5.30;;
11699;SDS011;5906;51.660;6.674;2023-07-24T00:10:23;11.63;;;5.17;;
11699;SDS011;5906;51.660;6.674;2023-07-24T00:12:50;5.77;;;4.60;;
11699;SDS011;5906;51.660;6.674;2023-07-24T00:15:17;6.67;;;3.80;;
11699;SDS011;5906;51.660;6.674;2023-07-24T00:17:44;10.23;;;4.30;;
11699;SDS011;5906;51.660;6.674;2023-07-24T00:20:12;7.67;;;3.70;;
11699;SDS011;5906;51.660;6.674;2023-07-24T00:22:39;10.50;;;4.00;;
11699;SDS011;5906;51.660;6.674;2023-07-24T00:25:07;5.93;;;3.37;;
11699;SDS011;5906;51.660;6.674;2023-07-24T00:27:35;6.03;;;3.57;;
11699;SDS011;5906;51.660;6.674;2023-07-24T00:30:02;4.10;;;3.27;;
11699;SDS011;5906;51.660;6.674;2023-07-24T00:32:30;6.67;;;4.00;;
11699;SDS011;5906;51.660;6.674;2023-07-24T00:34:57;7.03;;;4.17;;
11699;SDS011;5906;51.660;6.674;2023-07-24T00:37:24;6.80;;;4.30;;
11699;SDS011;5906;51.660;6.674;2023-07-24T00:39:51;6.43;;;4.67;;
11699;SDS011;5906;51.660;6.674;2023-07-24T00:42:18;6.80;;;4.60;;
11699;SDS011;5906;51.660;6.674;2023-07-24T00:44:45;13.10;;;4.23;;
11699;SDS011;5906;51.660;6.674;2023-07-24T00:47:12;7.90;;;4.23;;
11699;SDS011;5906;51.660;6.674;2023-07-24T00:49:39;5.53;;;3.80;;
11699;SDS011;5906;51.660;6.674;2023-07-24T00:52:07;9.10;;;4.10;;
11699;SDS011;5906;51.660;6.674;2023-07-24T00:54:34;7.30;;;3.80;;
11699;SDS011;5906;51.660;6.674;2023-07-24T00:57:01;5.53;;;4.03;;
11699;SDS011;5906;51.660;6.674;2023-07-24T00:59:30;11.27;;;4.50;;
11699;SDS011;5906;51.660;6.674;2023-07-24T01:01:58;11.90;;;4.70;;
11699;SDS011;5906;51.660;6.674;2023-07-24T01:04:26;6.17;;;4.77;;
11699;SDS011;5906;51.660;6.674;2023-07-24T01:06:53;8.00;;;4.37;;
11699;SDS011;5906;51.660;6.674;2023-07-24T01:09:21;9.37;;;4.30;;
11699;SDS011;5906;51.660;6.674;2023-07-24T01:11:54;9.50;;;3.90;;
11699;SDS011;5906;51.660;6.674;2023-07-24T01:16:59;8.00;;;4.40;;
11699;SDS011;5906;51.660;6.674;2023-07-24T01:19:42;7.70;;;4.17;;
11699;SDS011;5906;51.660;6.674;2023-07-24T01:24:59;6.83;;;4.50;;
11699;SDS011;5906;51.660;6.674;2023-07-24T01:27:32;9.63;;;4.77;;
11699;SDS011;5906;51.660;6.674;2023-07-24T01:29:59;7.63;;;4.43;;
11699;SDS011;5906;51.660;6.674;2023-07-24T01:32:26;14.33;;;5.30;;
11699;SDS011;5906;51.660;6.674;2023-07-24T01:34:54;8.30;;;4.67;;
11699;SDS011;5906;51.660;6.674;2023-07-24T01:37:21;7.77;;;4.47;;
11699;SDS011;5906;51.660;6.674;2023-07-24T01:39:51;7.20;;;4.80;;
11699;SDS011;5906;51.660;6.674;2023-07-24T01:42:19;14.33;;;4.80;;
11699;SDS011;5906;51.660;6.674;2023-07-24T01:44:56;7.90;;;5.47;;
11699;SDS011;5906;51.660;6.674;2023-07-24T01:47:23;8.53;;;4.97;;
11699;SDS011;5906;51.660;6.674;2023-07-24T01:49:50;10.83;;;5.20;;
11699;SDS011;5906;51.660;6.674;2023-07-24T01:52:18;6.80;;;4.97;;
11699;SDS011;5906;51.660;6.674;2023-07-24T01:54:45;8.77;;;5.10;;
11699;SDS011;5906;51.660;6.674;2023-07-24T01:57:12;7.70;;;4.90;;
11699;SDS011;5906;51.660;6.674;2023-07-24T01:59:39;9.33;;;5.07;;
11699;SDS011;5906;51.660;6.674;2023-07-24T02:02:06;8.40;;;5.20;;
11699;SDS011;5906;51.660;6.674;2023-07-24T02:04:33;7.97;;;4.77;;
11699;SDS011;5906;51.660;6.674;2023-07-24T02:07:00;7.73;;;4.80;;
11699;SDS011;5906;51.660;6.674;2023-07-24T02:09:28;10.30;;;5.10;;
11699;SDS011;5906;51.660;6.674;2023-07-24T02:11:55;7.77;;;4.97;;
11699;SDS011;5906;51.660;6.674;2023-07-24T02:14:22;11.30;;;5.30;;
11699;SDS011;5906;51.660;6.674;2023-07-24T02:16:51;12.33;;;5.70;;
11699;SDS011;5906;51.660;6.674;2023-07-24T02:19:18;6.00;;;4.57;;
11699;SDS011;5906;51.660;6.674;2023-07-24T02:21:45;11.90;;;4.40;;
11699;SDS011;5906;51.660;6.674;2023-07-24T02:24:12;10.57;;;5.50;;
11699;SDS011;5906;51.660;6.674;2023-07-24T02:26:39;10.97;;;5.30;;
11699;SDS011;5906;51.660;6.674;2023-07-24T02:29:06;7.87;;;5.17;;
11699;SDS011;5906;51.660;6.674;2023-07-24T02:31:33;9.37;;;5.30;;
11699;SDS011;5906;51.660;6.674;2023-07-24T02:34:00;7.30;;;4.73;;
11699;SDS011;5906;51.660;6.674;2023-07-24T02:36:27;17.57;;;6.10;;
11699;SDS011;5906;51.660;6.674;2023-07-24T02:38:55;11.00;;;6.67;;
11699;SDS011;5906;51.660;6.674;2023-07-24T02:41:22;7.37;;;5.00;;
11699;SDS011;5906;51.660;6.674;2023-07-24T02:43:50;7.53;;;5.10;;
11699;SDS011;5906;51.660;6.674;2023-07-24T02:46:17;6.93;;;5.23;;
11699;SDS011;5906;51.660;6.674;2023-07-24T02:48:44;8.93;;;4.73;;
11699;SDS011;5906;51.660;6.674;2023-07-24T02:51:11;9.53;;;5.53;;
11699;SDS011;5906;51.660;6.674;2023-07-24T02:53:38;9.17;;;5.43;;
11699;SDS011;5906;51.660;6.674;2023-07-24T02:56:05;12.90;;;5.07;;
11699;SDS011;5906;51.660;6.674;2023-07-24T02:58:32;10.17;;;5.17;;
11699;SDS011;5906;51.660;6.674;2023-07-24T03:01:03;8.40;;;5.30;;
11699;SDS011;5906;51.660;6.674;2023-07-24T03:03:33;9.27;;;5.20;;
11699;SDS011;5906;51.660;6.674;2023-07-24T03:06:01;8.40;;;5.17;;
11699;SDS011;5906;51.660;6.674;2023-07-24T03:08:28;6.20;;;5.03;;
11699;SDS011;5906;51.660;6.674;2023-07-24T03:10:55;7.67;;;5.20;;
11699;SDS011;5906;51.660;6.674;2023-07-24T03:13:23;8.20;;;5.40;;
11699;SDS011;5906;51.660;6.674;2023-07-24T03:15:53;11.53;;;4.90;;
11699;SDS011;5906;51.660;6.674;2023-07-24T03:18:22;13.93;;;5.50;;
11699;SDS011;5906;51.660;6.674;2023-07-24T03:20:49;6.73;;;4.70;;
11699;SDS011;5906;51.660;6.674;2023-07-24T03:23:16;12.80;;;5.00;;
11699;SDS011;5906;51.660;6.674;2023-07-24T03:25:47;12.80;;;5.20;;
11699;SDS011;5906;51.660;6.674;2023-07-24T03:28:14;9.40;;;5.73;;
11699;SDS011;5906;51.660;6.674;2023-07-24T03:30:41;11.37;;;5.53;;
11699;SDS011;5906;51.660;6.674;2023-07-24T03:33:08;12.27;;;6.43;;
11699;SDS011;5906;51.660;6.674;2023-07-24T03:35:35;11.33;;;5.80;;
11699;SDS011;5906;51.660;6.674;2023-07-24T03:38:02;10.43;;;5.13;;
11699;SDS011;5906;51.660;6.674;2023-07-24T03:40:29;13.17;;;6.50;;
11699;SDS011;5906;51.660;6.674;2023-07-24T03:42:56;8.37;;;5.30;;
11699;SDS011;5906;51.660;6.674;2023-07-24T03:45:23;12.07;;;6.20;;
11699;SDS011;5906;51.660;6.674;2023-07-24T03:47:50;9.83;;;5.70;;
11699;SDS011;5906;51.660;6.674;2023-07-24T03:50:17;22.63;;;5.37;;
11699;SDS011;5906;51.660;6.674;2023-07-24T03:52:44;9.30;;;5.87;;
11699;SDS011;5906;51.660;6.674;2023-07-24T03:55:12;8.43;;;5.67;;
11699;SDS011;5906;51.660;6.674;2023-07-24T03:57:39;10.73;;;5.97;;
11699;SDS011;5906;51.660;6.674;2023-07-24T04:00:06;10.13;;;5.57;;
11699;SDS011;5906;51.660;6.674;2023-07-24T04:02:34;11.63;;;5.70;;
11699;SDS011;5906;51.660;6.674;2023-07-24T04:05:01;13.30;;;5.90;;
11699;SDS011;5906;51.660;6.674;2023-07-24T04:07:29;13.53;;;6.50;;
11699;SDS011;5906;51.660;6.674;2023-07-24T04:09:56;12.30;;;5.70;;
11699;SDS011;5906;51.660;6.674;2023-07-24T04:12:23;19.37;;;6.17;;
11699;SDS011;5906;51.660;6.674;2023-07-24T04:14:50;15.73;;;6.20;;
11699;SDS011;5906;51.660;6.674;2023-07-24T04:17:17;9.67;;;5.90;;
11699;SDS011;5906;51.660;6.674;2023-07-24T04:19:44;9.27;;;6.00;;
11699;SDS011;5906;51.660;6.674;2023-07-24T04:22:11;10.83;;;6.17;;
11699;SDS011;5906;51.660;6.674;2023-07-24T04:24:38;11.93;;;6.30;;
11699;SDS011;5906;51.660;6.674;2023-07-24T04:27:05;12.87;;;5.90;;
11699;SDS011;5906;51.660;6.674;2023-07-24T04:29:32;10.70;;;6.47;;
11699;SDS011;5906;51.660;6.674;2023-07-24T04:31:59;13.90;;;7.33;;
11699;SDS011;5906;51.660;6.674;2023-07-24T04:34:26;11.30;;;6.50;;
11699;SDS011;5906;51.660;6.674;2023-07-24T04:36:53;18.77;;;6.60;;
11699;SDS011;5906;51.660;6.674;2023-07-24T04:39:20;15.63;;;6.50;;
11699;SDS011;5906;51.660;6.674;2023-07-24T04:41:47;13.30;;;5.73;;
11699;SDS011;5906;51.660;6.674;2023-07-24T04:44:14;12.67;;;6.53;;
11699;SDS011;5906;51.660;6.674;2023-07-24T04:46:41;12.23;;;6.57;;
11699;SDS011;5906;51.660;6.674;2023-07-24T04:49:08;11.77;;;6.00;;
11699;SDS011;5906;51.660;6.674;2023-07-24T04:51:35;18.53;;;6.07;;
11699;SDS011;5906;51.660;6.674;2023-07-24T04:54:03;11.30;;;6.90;;
11699;SDS011;5906;51.660;6.674;2023-07-24T04:56:30;9.17;;;5.97;;
11699;SDS011;5906;51.660;6.674;2023-07-24T04:58:58;9.20;;;6.20;;
11699;SDS011;5906;51.660;6.674;2023-07-24T05:01:25;12.90;;;5.40;;
11699;SDS011;5906;51.660;6.674;2023-07-24T05:03:52;12.37;;;6.57;;
11699;SDS011;5906;51.660;6.674;2023-07-24T05:06:18;12.60;;;6.40;;
11699;SDS011;5906;51.660;6.674;2023-07-24T05:08:45;11.10;;;5.83;;
11699;SDS011;5906;51.660;6.674;2023-07-24T05:11:12;9.93;;;6.13;;
11699;SDS011;5906;51.660;6.674;2023-07-24T05:13:39;11.37;;;6.00;;
11699;SDS011;5906;51.660;6.674;2023-07-24T05:16:07;9.90;;;5.83;;
11699;SDS011;5906;51.660;6.674;2023-07-24T05:18:34;11.57;;;5.70;;
11699;SDS011;5906;51.660;6.674;2023-07-24T05:21:01;9.20;;;6.07;;
11699;SDS011;5906;51.660;6.674;2023-07-24T05:23:28;9.97;;;6.53;;
11699;SDS011;5906;51.660;6.674;2023-07-24T05:25:59;9.60;;;6.00;;
11699;SDS011;5906;51.660;6.674;2023-07-24T05:28:27;10.80;;;6.30;;
11699;SDS011;5906;51.660;6.674;2023-07-24T05:30:55;12.03;;;6.57;;
11699;SDS011;5906;51.660;6.674;2023-07-24T05:33:25;12.60;;;6.60;;
11699;SDS011;5906;51.660;6.674;2023-07-24T05:35:57;10.43;;;6.80;;
11699;SDS011;5906;51.660;6.674;2023-07-24T05:38:25;12.17;;;6.10;;
11699;SDS011;5906;51.660;6.674;2023-07-24T05:41:00;13.80;;;7.60;;
11699;SDS011;5906;51.660;6.674;2023-07-24T05:43:29;10.77;;;5.30;;
11699;SDS011;5906;51.660;6.674;2023-07-24T05:45:57;12.20;;;5.40;;
11699;SDS011;5906;51.660;6.674;2023-07-24T05:48:24;10.03;;;5.70;;
11699;SDS011;5906;51.660;6.674;2023-07-24T05:50:52;13.80;;;5.00;;
11699;SDS011;5906;51.660;6.674;2023-07-24T05:53:19;8.50;;;4.57;;
11699;SDS011;5906;51.660;6.674;2023-07-24T05:55:46;12.63;;;4.07;;
11699;SDS011;5906;51.660;6.674;2023-07-24T05:58:13;10.17;;;4.20;;
11699;SDS011;5906;51.660;6.674;2023-07-24T06:00:40;8.07;;;5.00;;
11699;SDS011;5906;51.660;6.674;2023-07-24T06:03:10;6.10;;;4.63;;
11699;SDS011;5906;51.660;6.674;2023-07-24T06:05:37;6.70;;;4.63;;
11699;SDS011;5906;51.660;6.674;2023-07-24T06:08:03;8.53;;;4.50;;
11699;SDS011;5906;51.660;6.674;2023-07-24T06:10:30;10.60;;;4.27;;
11699;SDS011;5906;51.660;6.674;2023-07-24T06:12:57;9.17;;;4.23;;
11699;SDS011;5906;51.660;6.674;2023-07-24T06:15:25;12.23;;;3.33;;
11699;SDS011;5906;51.660;6.674;2023-07-24T06:17:52;4.10;;;3.40;;
11699;SDS011;5906;51.660;6.674;2023-07-24T06:20:20;8.40;;;3.33;;
11699;SDS011;5906;51.660;6.674;2023-07-24T06:22:47;4.30;;;3.07;;
11699;SDS011;5906;51.660;6.674;2023-07-24T06:25:14;5.00;;;3.00;;
11699;SDS011;5906;51.660;6.674;2023-07-24T06:27:40;3.77;;;3.20;;
11699;SDS011;5906;51.660;6.674;2023-07-24T06:30:07;4.60;;;3.30;;
11699;SDS011;5906;51.660;6.674;2023-07-24T06:32:41;3.70;;;3.00;;
11699;SDS011;5906;51.660;6.674;2023-07-24T06:35:08;3.83;;;3.03;;
11699;SDS011;5906;51.660;6.674;2023-07-24T06:37:35;4.57;;;3.57;;
11699;SDS011;5906;51.660;6.674;2023-07-24T06:40:02;5.40;;;3.97;;
11699;SDS011;5906;51.660;6.674;2023-07-24T06:42:30;4.70;;;3.33;;
11699;SDS011;5906;51.660;6.674;2023-07-24T06:44:57;5.50;;;3.83;;
11699;SDS011;5906;51.660;6.674;2023-07-24T06:47:24;4.60;;;3.40;;
11699;SDS011;5906;51.660;6.674;2023-07-24T06:49:51;5.97;;;4.30;;
11699;SDS011;5906;51.660;6.674;2023-07-24T06:52:18;5.20;;;3.80;;
11699;SDS011;5906;51.660;6.674;2023-07-24T06:54:45;5.57;;;3.70;;
11699;SDS011;5906;51.660;6.674;2023-07-24T06:57:12;5.43;;;4.20;;
11699;SDS011;5906;51.660;6.674;2023-07-24T06:59:40;5.00;;;3.70;;
11699;SDS011;5906;51.660;6.674;2023-07-24T07:02:06;7.63;;;4.43;;
11699;SDS011;5906;51.660;6.674;2023-07-24T07:04:33;8.83;;;4.33;;
11699;SDS011;5906;51.660;6.674;2023-07-24T07:07:00;6.93;;;4.20;;
11699;SDS011;5906;51.660;6.674;2023-07-24T07:09:27;4.53;;;3.70;;
11699;SDS011;5906;51.660;6.674;2023-07-24T07:11:53;4.57;;;3.80;;
11699;SDS011;5906;51.660;6.674;2023-07-24T07:14:20;5.23;;;4.20;;
11699;SDS011;5906;51.660;6.674;2023-07-24T07:16:47;5.20;;;3.90;;
11699;SDS011;5906;51.660;6.674;2023-07-24T07:19:15;8.97;;;4.07;;
11699;SDS011;5906;51.660;6.674;2023-07-24T07:21:42;6.00;;;4.10;;
11699;SDS011;5906;51.660;6.674;2023-07-24T07:24:09;5.70;;;4.20;;
11699;SDS011;5906;51.660;6.674;2023-07-24T07:26:35;4.50;;;3.90;;
11699;SDS011;5906;51.660;6.674;2023-07-24T07:29:02;5.53;;;4.20;;
11699;SDS011;5906;51.660;6.674;2023-07-24T07:31:29;5.50;;;3.80;;
11699;SDS011;5906;51.660;6.674;2023-07-24T07:33:56;5.03;;;4.00;;
11699;SDS011;5906;51.660;6.674;2023-07-24T07:36:23;5.57;;;3.90;;
11699;SDS011;5906;51.660;6.674;2023-07-24T07:38:50;4.50;;;3.60;;
11699;SDS011;5906;51.660;6.674;2023-07-24T07:41:17;4.60;;;4.00;;
11699;SDS011;5906;51.660;6.674;2023-07-24T07:43:44;4.77;;;3.77;;
11699;SDS011;5906;51.660;6.674;2023-07-24T07:46:11;9.77;;;3.60;;
11699;SDS011;5906;51.660;6.674;2023-07-24T07:48:38;4.23;;;3.60;;
11699;SDS011;5906;51.660;6.674;2023-07-24T07:51:05;4.40;;;3.53;;
11699;SDS011;5906;51.660;6.674;2023-07-24T07:53:32;5.07;;;4.03;;
11699;SDS011;5906;51.660;6.674;2023-07-24T07:56:00;3.90;;;3.00;;
11699;SDS011;5906;51.660;6.674;2023-07-24T07:58:27;3.57;;;3.27;;
11699;SDS011;5906;51.660;6.674;2023-07-24T08:00:53;5.00;;;3.83;;
11699;SDS011;5906;51.660;6.674;2023-07-24T08:03:21;6.33;;;3.00;;
11699;SDS011;5906;51.660;6.674;2023-07-24T08:05:48;4.67;;;3.63;;
11699;SDS011;5906;51.660;6.674;2023-07-24T08:08:14;4.30;;;3.60;;
11699;SDS011;5906;51.660;6.674;2023-07-24T08:10:41;4.67;;;3.30;;
11699;SDS011;5906;51.660;6.674;2023-07-24T08:13:08;4.30;;;3.40;;
11699;SDS011;5906;51.660;6.674;2023-07-24T08:15:35;4.10;;;3.60;;
11699;SDS011;5906;51.660;6.674;2023-07-24T08:18:10;4.20;;;3.10;;
11699;SDS011;5906;51.660;6.674;2023-07-24T08:20:37;5.70;;;3.40;;
11699;SDS011;5906;51.660;6.674;2023-07-24T08:23:06;3.67;;;3.13;;
11699;SDS011;5906;51.660;6.674;2023-07-24T08:25:33;7.83;;;4.77;;
11699;SDS011;5906;51.660;6.674;2023-07-24T08:28:00;4.60;;;3.50;;
11699;SDS011;5906;51.660;6.674;2023-07-24T08:30:32;5.83;;;3.60;;
11699;SDS011;5906;51.660;6.674;2023-07-24T08:33:00;4.90;;;3.70;;
11699;SDS011;5906;51.660;6.674;2023-07-24T08:35:27;5.07;;;3.80;;
11699;SDS011;5906;51.660;6.674;2023-07-24T08:37:55;6.47;;;3.60;;
11699;SDS011;5906;51.660;6.674;2023-07-24T08:40:22;4.90;;;4.10;;
11699;SDS011;5906;51.660;6.674;2023-07-24T08:42:49;5.67;;;3.50;;
11699;SDS011;5906;51.660;6.674;2023-07-24T08:45:19;4.57;;;4.00;;
11699;SDS011;5906;51.660;6.674;2023-07-24T08:47:47;5.73;;;3.80;;
11699;SDS011;5906;51.660;6.674;2023-07-24T08:50:14;8.67;;;4.20;;
11699;SDS011;5906;51.660;6.674;2023-07-24T08:52:43;10.83;;;4.87;;
11699;SDS011;5906;51.660;6.674;2023-07-24T08:55:11;5.27;;;4.47;;
11699;SDS011;5906;51.660;6.674;2023-07-24T08:57:38;7.43;;;4.47;;
11699;SDS011;5906;51.660;6.674;2023-07-24T09:00:05;6.10;;;4.23;;
11699;SDS011;5906;51.660;6.674;2023-07-24T09:02:33;5.33;;;4.40;;
11699;SDS011;5906;51.660;6.674;2023-07-24T09:05:02;4.33;;;3.93;;
11699;SDS011;5906;51.660;6.674;2023-07-24T09:07:30;6.63;;;5.00;;
11699;SDS011;5906;51.660;6.674;2023-07-24T09:09:58;5.40;;;4.60;;
11699;SDS011;5906;51.660;6.674;2023-07-24T09:12:25;7.00;;;4.60;;
11699;SDS011;5906;51.660;6.674;2023-07-24T09:15:02;6.60;;;4.20;;
11699;SDS011;5906;51.660;6.674;2023-07-24T09:17:32;6.33;;;5.07;;
11699;SDS011;5906;51.660;6.674;2023-07-24T09:20:00;5.50;;;4.20;;
11699;SDS011;5906;51.660;6.674;2023-07-24T09:22:28;8.83;;;4.53;;
11699;SDS011;5906;51.660;6.674;2023-07-24T09:24:55;4.70;;;3.40;;
11699;SDS011;5906;51.660;6.674;2023-07-24T09:27:24;5.37;;;3.53;;
11699;SDS011;5906;51.660;6.674;2023-07-24T09:29:56;7.33;;;3.80;;
11699;SDS011;5906;51.660;6.674;2023-07-24T09:32:27;4.93;;;3.10;;
11699;SDS011;5906;51.660;6.674;2023-07-24T09:34:54;5.50;;;3.63;;
11699;SDS011;5906;51.660;6.674;2023-07-24T09:37:28;4.97;;;4.00;;
11699;SDS011;5906;51.660;6.674;2023-07-24T09:40:03;3.93;;;3.63;;
11699;SDS011;5906;51.660;6.674;2023-07-24T09:42:31;4.57;;;3.70;;
11699;SDS011;5906;51.660;6.674;2023-07-24T09:45:01;4.80;;;3.63;;
11699;SDS011;5906;51.660;6.674;2023-07-24T09:47:29;5.33;;;3.30;;
11699;SDS011;5906;51.660;6.674;2023-07-24T09:50:16;3.80;;;3.40;;
11699;SDS011;5906;51.660;6.674;2023-07-24T09:52:44;3.63;;;3.20;;
11699;SDS011;5906;51.660;6.674;2023-07-24T09:55:24;3.90;;;3.03;;
11699;SDS011;5906;51.660;6.674;2023-07-24T09:57:56;5.77;;;3.57;;
11699;SDS011;5906;51.660;6.674;2023-07-24T10:00:25;4.30;;;3.30;;
11699;SDS011;5906;51.660;6.674;2023-07-24T10:02:52;4.70;;;3.53;;
11699;SDS011;5906;51.660;6.674;2023-07-24T10:05:21;4.50;;;3.40;;
11699;SDS011;5906;51.660;6.674;2023-07-24T10:07:48;4.33;;;3.63;;
11699;SDS011;5906;51.660;6.674;2023-07-24T10:10:15;4.03;;;3.27;;
11699;SDS011;5906;51.660;6.674;2023-07-24T10:12:43;5.10;;;3.50;;
11699;SDS011;5906;51.660;6.674;2023-07-24T10:15:10;5.20;;;3.40;;
11699;SDS011;5906;51.660;6.674;2023-07-24T10:17:38;4.13;;;3.10;;
11699;SDS011;5906;51.660;6.674;2023-07-24T10:20:08;4.70;;;3.40;;
11699;SDS011;5906;51.660;6.674;2023-07-24T10:22:36;5.33;;;3.30;;
11699;SDS011;5906;51.660;6.674;2023-07-24T10:25:08;4.40;;;3.30;;
11699;SDS011;5906;51.660;6.674;2023-07-24T10:27:43;6.37;;;3.10;;
11699;SDS011;5906;51.660;6.674;2023-07-24T10:30:11;8.00;;;3.27;;
11699;SDS011;5906;51.660;6.674;2023-07-24T10:33:19;3.97;;;3.50;;
11699;SDS011;5906;51.660;6.674;2023-07-24T10:35:47;9.70;;;3.83;;
11699;SDS011;5906;51.660;6.674;2023-07-24T10:38:31;5.10;;;4.20;;
11699;SDS011;5906;51.660;6.674;2023-07-24T10:41:05;4.40;;;3.80;;
11699;SDS011;5906;51.660;6.674;2023-07-24T10:43:47;5.23;;;3.97;;
11699;SDS011;5906;51.660;6.674;2023-07-24T10:46:19;5.87;;;4.50;;
11699;SDS011;5906;51.660;6.674;2023-07-24T10:48:47;5.03;;;3.77;;
11699;SDS011;5906;51.660;6.674;2023-07-24T10:51:17;4.30;;;3.80;;
11699;SDS011;5906;51.660;6.674;2023-07-24T10:53:48;4.43;;;3.50;;
11699;SDS011;5906;51.660;6.674;2023-07-24T10:56:16;8.33;;;3.53;;
11699;SDS011;5906;51.660;6.674;2023-07-24T10:58:43;4.30;;;3.27;;
11699;SDS011;5906;51.660;6.674;2023-07-24T11:01:10;4.13;;;3.60;;
11699;SDS011;5906;51.660;6.674;2023-07-24T11:03:40;8.37;;;4.20;;
11699;SDS011;5906;51.660;6.674;2023-07-24T11:06:17;7.30;;;3.80;;
11699;SDS011;5906;51.660;6.674;2023-07-24T11:08:52;8.50;;;4.10;;
11699;SDS011;5906;51.660;6.674;2023-07-24T11:11:30;5.80;;;4.47;;
11699;SDS011;5906;51.660;6.674;2023-07-24T11:14:00;4.73;;;3.77;;
11699;SDS011;5906;51.660;6.674;2023-07-24T11:16:28;4.80;;;3.90;;
11699;SDS011;5906;51.660;6.674;2023-07-24T11:19:00;5.07;;;3.67;;
11699;SDS011;5906;51.660;6.674;2023-07-24T11:21:27;4.60;;;3.80;;
11699;SDS011;5906;51.660;6.674;2023-07-24T11:23:56;7.47;;;4.50;;
11699;SDS011;5906;51.660;6.674;2023-07-24T11:26:24;5.50;;;4.00;;
11699;SDS011;5906;51.660;6.674;2023-07-24T11:28:52;5.80;;;4.40;;
11699;SDS011;5906;51.660;6.674;2023-07-24T11:31:20;5.13;;;4.33;;
11699;SDS011;5906;51.660;6.674;2023-07-24T11:33:48;7.87;;;4.80;;
11699;SDS011;5906;51.660;6.674;2023-07-24T11:36:17;10.60;;;4.57;;
11699;SDS011;5906;51.660;6.674;2023-07-24T11:38:45;15.30;;;5.70;;
11699;SDS011;5906;51.660;6.674;2023-07-24T11:41:12;6.77;;;4.63;;
11699;SDS011;5906;51.660;6.674;2023-07-24T11:43:48;6.03;;;4.70;;
11699;SDS011;5906;51.660;6.674;2023-07-24T11:46:22;6.33;;;4.03;;
11699;SDS011;5906;51.660;6.674;2023-07-24T11:48:54;11.73;;;5.40;;
11699;SDS011;5906;51.660;6.674;2023-07-24T11:51:27;10.37;;;5.00;;
11699;SDS011;5906;51.660;6.674;2023-07-24T11:54:06;8.30;;;5.50;;
11699;SDS011;5906;51.660;6.674;2023-07-24T11:56:34;7.17;;;4.90;;
11699;SDS011;5906;51.660;6.674;2023-07-24T11:59:11;7.40;;;4.73;;
11699;SDS011;5906;51.660;6.674;2023-07-24T12:01:40;5.37;;;4.33;;
11699;SDS011;5906;51.660;6.674;2023-07-24T12:04:07;6.50;;;4.83;;
11699;SDS011;5906;51.660;6.674;2023-07-24T12:06:35;13.93;;;5.30;;
11699;SDS011;5906;51.660;6.674;2023-07-24T12:09:02;6.47;;;4.83;;
11699;SDS011;5906;51.660;6.674;2023-07-24T12:11:34;7.27;;;5.23;;
11699;SDS011;5906;51.660;6.674;2023-07-24T12:14:15;5.53;;;4.30;;
11699;SDS011;5906;51.660;6.674;2023-07-24T12:16:42;9.70;;;4.70;;
11699;SDS011;5906;51.660;6.674;2023-07-24T12:19:09;7.60;;;5.47;;
11699;SDS011;5906;51.660;6.674;2023-07-24T12:21:36;7.00;;;5.20;;
11699;SDS011;5906;51.660;6.674;2023-07-24T12:24:04;6.17;;;4.80;;
11699;SDS011;5906;51.660;6.674;2023-07-24T12:26:31;12.60;;;5.00;;
11699;SDS011;5906;51.660;6.674;2023-07-24T12:28:59;8.10;;;5.37;;
11699;SDS011;5906;51.660;6.674;2023-07-24T12:31:27;7.23;;;5.43;;
11699;SDS011;5906;51.660;6.674;2023-07-24T12:33:55;7.40;;;5.57;;
11699;SDS011;5906;51.660;6.674;2023-07-24T12:36:22;12.87;;;5.83;;
11699;SDS011;5906;51.660;6.674;2023-07-24T12:38:49;7.83;;;5.40;;
11699;SDS011;5906;51.660;6.674;2023-07-24T12:41:16;9.63;;;5.80;;
11699;SDS011;5906;51.660;6.674;2023-07-24T12:43:43;7.80;;;5.13;;
11699;SDS011;5906;51.660;6.674;2023-07-24T12:46:11;7.73;;;5.70;;
11699;SDS011;5906;51.660;6.674;2023-07-24T12:48:38;7.33;;;5.33;;
11699;SDS011;5906;51.660;6.674;2023-07-24T12:51:05;8.00;;;5.80;;
11699;SDS011;5906;51.660;6.674;2023-07-24T12:53:32;9.33;;;5.17;;
11699;SDS011;5906;51.660;6.674;2023-07-24T12:56:08;7.20;;;4.67;;
11699;SDS011;5906;51.660;6.674;2023-07-24T12:58:35;6.27;;;4.70;;
11699;SDS011;5906;51.660;6.674;2023-07-24T13:01:02;5.90;;;4.50;;
11699;SDS011;5906;51.660;6.674;2023-07-24T13:03:29;5.13;;;4.03;;
11699;SDS011;5906;51.660;6.674;2023-07-24T13:05:56;5.83;;;3.73;;
11699;SDS011;5906;51.660;6.674;2023-07-24T13:08:23;5.10;;;3.73;;
11699;SDS011;5906;51.660;6.674;2023-07-24T13:10:50;11.33;;;4.40;;
11699;SDS011;5906;51.660;6.674;2023-07-24T13:13:18;6.30;;;3.77;;
11699;SDS011;5906;51.660;6.674;2023-07-24T13:15:45;5.07;;;3.40;;
11699;SDS011;5906;51.660;6.674;2023-07-24T13:18:12;4.70;;;3.13;;
11699;SDS011;5906;51.660;6.674;2023-07-24T13:20:53;4.80;;;3.90;;
11699;SDS011;5906;51.660;6.674;2023-07-24T13:23:21;4.23;;;3.27;;
11699;SDS011;5906;51.660;6.674;2023-07-24T13:25:48;4.70;;;3.70;;
11699;SDS011;5906;51.660;6.674;2023-07-24T13:28:17;5.40;;;3.87;;
11699;SDS011;5906;51.660;6.674;2023-07-24T13:30:44;5.10;;;3.70;;
11699;SDS011;5906;51.660;6.674;2023-07-24T13:33:12;4.50;;;3.50;;
11699;SDS011;5906;51.660;6.674;2023-07-24T13:35:39;5.63;;;3.70;;
11699;SDS011;5906;51.660;6.674;2023-07-24T13:38:07;5.47;;;3.57;;
11699;SDS011;5906;51.660;6.674;2023-07-24T13:40:35;5.40;;;4.07;;
11699;SDS011;5906;51.660;6.674;2023-07-24T13:43:02;4.83;;;3.67;;
11699;SDS011;5906;51.660;6.674;2023-07-24T13:45:30;6.07;;;3.40;;
11699;SDS011;5906;51.660;6.674;2023-07-24T13:47:57;5.30;;;4.23;;
11699;SDS011;5906;51.660;6.674;2023-07-24T13:50:28;6.40;;;4.00;;
11699;SDS011;5906;51.660;6.674;2023-07-24T13:52:55;11.10;;;4.33;;
11699;SDS011;5906;51.660;6.674;2023-07-24T13:55:23;4.83;;;4.00;;
11699;SDS011;5906;51.660;6.674;2023-07-24T13:57:50;4.67;;;3.77;;
11699;SDS011;5906;51.660;6.674;2023-07-24T14:00:17;5.10;;;3.70;;
11699;SDS011;5906;51.660;6.674;2023-07-24T14:02:44;4.60;;;3.40;;
11699;SDS011;5906;51.660;6.674;2023-07-24T14:05:11;5.40;;;4.17;;
11699;SDS011;5906;51.660;6.674;2023-07-24T14:07:38;4.67;;;3.53;;
11699;SDS011;5906;51.660;6.674;2023-07-24T14:10:05;4.10;;;3.43;;
11699;SDS011;5906;51.660;6.674;2023-07-24T14:12:33;8.90;;;3.93;;
11699;SDS011;5906;51.660;6.674;2023-07-24T14:15:00;4.33;;;3.70;;
11699;SDS011;5906;51.660;6.674;2023-07-24T14:17:27;4.50;;;3.70;;
11699;SDS011;5906;51.660;6.674;2023-07-24T14:19:54;5.50;;;3.93;;
11699;SDS011;5906;51.660;6.674;2023-07-24T14:22:22;4.70;;;4.20;;
11699;SDS011;5906;51.660;6.674;2023-07-24T14:24:51;5.33;;;3.60;;
11699;SDS011;5906;51.660;6.674;2023-07-24T14:27:19;4.30;;;3.27;;
11699;SDS011;5906;51.660;6.674;2023-07-24T14:29:46;5.83;;;3.60;;
11699;SDS011;5906;51.660;6.674;2023-07-24T14:32:13;8.00;;;3.70;;
11699;SDS011;5906;51.660;6.674;2023-07-24T14:34:42;4.10;;;3.20;;
11699;SDS011;5906;51.660;6.674;2023-07-24T14:37:09;3.80;;;3.30;;
11699;SDS011;5906;51.660;6.674;2023-07-24T14:39:36;6.10;;;3.77;;
11699;SDS011;5906;51.660;6.674;2023-07-24T14:42:04;5.07;;;3.93;;
11699;SDS011;5906;51.660;6.674;2023-07-24T14:44:31;5.27;;;3.50;;
11699;SDS011;5906;51.660;6.674;2023-07-24T14:46:58;3.77;;;3.17;;
11699;SDS011;5906;51.660;6.674;2023-07-24T14:49:26;6.67;;;4.27;;
11699;SDS011;5906;51.660;6.674;2023-07-24T14:51:53;5.73;;;4.00;;
11699;SDS011;5906;51.660;6.674;2023-07-24T14:54:20;10.60;;;4.30;;
11699;SDS011;5906;51.660;6.674;2023-07-24T14:56:47;6.23;;;4.13;;
11699;SDS011;5906;51.660;6.674;2023-07-24T14:59:27;6.50;;;4.50;;
11699;SDS011;5906;51.660;6.674;2023-07-24T15:01:55;4.90;;;4.40;;
11699;SDS011;5906;51.660;6.674;2023-07-24T15:04:22;8.63;;;5.10;;
11699;SDS011;5906;51.660;6.674;2023-07-24T15:06:49;8.13;;;5.20;;
11699;SDS011;5906;51.660;6.674;2023-07-24T15:09:16;5.73;;;4.80;;